• Join FlightAware (Why Join?)
  • Login
  • US Flag 
08:06AM EDT


 

Airport Tracker/Info


-or-


 

Live Flight TrackerFlight Track Log ✈ DAL1903 ✈ 25-Apr-2013 ✈ KLGA - KSRQ

Flight Track Log - Related Links

Times and Time Zones

All times are in EDT time to prevent confusion due to time zone crossing. See the DAL1903 flight status page for this flight to view local times or setup timezone preferences in your user account.

Time Position Orientation Groundspeed Altitude Reporting Facility
EDT Latitude Longitude Course Direction KTS MPH feet Rate Location/Type
12:04PM 40.8000 -73.8667 242° Southwest 156 180 1,400  Level New York TRACON
12:05PM 40.8667 -73.8833 349° North 229 264 3,500 2,760 Climbing New York TRACON
12:07PM 40.6403 -74.2594 244° Southwest  Level FlightAware Approximate
12:07PM 40.9153 -74.0086 297° West 252 290 9,400  Level New York Center
12:08PM 40.5922 -74.3902 246° West  Level FlightAware Approximate
12:08PM 40.8756 -74.0861 236° Southwest 266 306 12,200  Level New York Center
12:09PM 40.5478 -74.5233 246° West  Level FlightAware Approximate
12:09PM 40.8289 -74.1828 237° Southwest 293 337 14,600  Level New York Center
12:10PM 40.5105 -74.6571 242° Southwest  Level FlightAware Approximate
12:10PM 40.7894 -74.2547 234° Southwest 293 337 16,900  Level New York Center
12:11PM 40.7408 -74.3453 235° Southwest 286 329 17,100 60 Climbing New York Center
12:12PM 40.6986 -74.4333 238° Southwest 286 329 17,100 840 Level New York Center
12:13PM 40.6586 -74.5133 237° Southwest 286 329 18,800 1,620 Climbing New York Center
12:14PM 40.6078 -74.6008 233° Southwest 303 349 20,400 1,740 Climbing New York Center
12:15PM 40.5528 -74.6933 232° Southwest 310 357 22,400 1,860 Climbing New York Center
12:16PM 40.4956 -74.7828 230° Southwest 322 371 24,200 1,920 Climbing New York Center
12:17PM 40.4361 -74.8775 231° Southwest 327 376 26,300 1,800 Climbing New York Center
12:18PM 40.3764 -74.9694 230° Southwest 332 382 27,800 1,260 Climbing New York Center
12:19PM 40.3144 -75.0689 231° Southwest 343 395 28,900 1,080 Climbing New York Center
12:20PM 40.2503 -75.1683 230° Southwest 354 407 30,000 1,140 Climbing New York Center
12:21PM 40.1861 -75.2703 231° Southwest 365 420 31,200 960 Climbing New York Center
12:22PM 40.1217 -75.3719 230° Southwest 365 420 32,000 360 Climbing New York Center
12:23PM 40.0553 -75.4706 229° Southwest 365 420 32,000  Level New York Center
12:24PM 39.9886 -75.5719 229° Southwest 365 420 32,000  Level New York Center
12:25PM 39.9219 -75.6756 230° Southwest 370 426 32,000  Level New York Center
12:26PM 39.8592 -75.7767 231° Southwest 370 426 32,000  Level New York Center
12:27PM 39.7925 -75.8772 229° Southwest 370 426 32,000  Level New York Center
12:28PM 39.7275 -75.9806 231° Southwest 370 426 32,000  Level New York Center
12:30PM 39.5956 -76.1894 231° Southwest 373 429 32,000  Level Washington Center
12:31PM 39.5283 -76.2883 229° Southwest 373 429 32,000  Level Washington Center
12:32PM 39.4631 -76.3925 231° Southwest 378 435 32,000  Level Washington Center
12:33PM 39.3956 -76.4939 229° Southwest 373 429 32,000  Level Washington Center
12:34PM 39.3261 -76.5978 229° Southwest 373 429 32,000  Level Washington Center
12:35PM 39.2606 -76.6986 230° Southwest 373 429 32,000  Level Washington Center
12:36PM 39.1950 -76.8022 231° Southwest 373 429 32,000  Level Washington Center
12:37PM 39.1314 -76.9056 232° Southwest 373 429 32,000  Level Washington Center
12:38PM 39.0656 -77.0031 229° Southwest 373 429 32,000  Level Washington Center
12:39PM 38.9936 -77.0953 225° Southwest 373 429 32,000  Level Washington Center
12:40PM 38.9156 -77.1764 219° Southwest 373 429 32,000  Level Washington Center
12:41PM 38.8372 -77.2625 221° Southwest 373 429 32,000  Level Washington Center
12:42PM 38.7608 -77.3489 221° Southwest 368 423 32,000  Level Washington Center
12:43PM 38.6825 -77.4319 220° Southwest 368 423 32,000  Level Washington Center
12:44PM 38.6061 -77.5150 220° Southwest 368 423 32,000  Level Washington Center
12:45PM 38.5211 -77.6083 221° Southwest 368 423 32,000  Level Washington Center
12:47PM 38.4105 -77.7242 219° Southwest  Level FlightAware Approximate
12:47PM 38.3661 -77.7764 219° Southwest 368 423 32,000  Level Washington Center
12:48PM 38.2894 -77.8614 221° Southwest 368 423 32,000  Level Washington Center
12:49PM 38.2106 -77.9436 219° Southwest 368 423 32,000  Level Washington Center
12:50PM 38.1339 -78.0283 221° Southwest 368 423 32,000  Level Washington Center
12:51PM 38.0550 -78.1103 219° Southwest 368 423 32,000  Level Washington Center
12:52PM 37.9825 -78.1894 221° Southwest 368 423 32,000  Level Washington Center
12:53PM 37.9164 -78.2503 216° Southwest 368 423 32,000  Level Washington Center
12:54PM 37.8186 -78.3414 216° Southwest 368 423 32,000  Level Washington Center
12:55PM 37.7439 -78.4097 216° Southwest 368 423 32,000  Level Washington Center
12:56PM 37.6628 -78.4881 217° Southwest 368 423 32,000  Level Washington Center
12:57PM 37.5817 -78.5636 216° Southwest 373 429 32,000  Level Washington Center
12:58PM 37.5025 -78.6389 217° Southwest 373 429 32,000  Level Washington Center
12:59PM 37.4128 -78.7217 216° Southwest 373 429 32,000  Level Washington Center
01:00PM 37.3317 -78.7967 216° Southwest 373 429 32,000  Level Washington Center
01:01PM 37.2503 -78.8742 217° Southwest 373 429 32,000  Level Washington Center
01:02PM 37.1669 -78.9489 216° Southwest 373 429 32,000  Level Washington Center
01:03PM 37.0856 -79.0233 216° Southwest 373 429 32,000  Level Washington Center
01:04PM 37.0103 -79.0928 216° Southwest 373 429 32,000 360 Level Washington Center
01:05PM 36.9289 -79.1697 217° Southwest 373 429 32,800 660 Climbing Washington Center
01:07PM 36.7742 -79.3067 215° Southwest 377 434 34,000 420 Climbing Atlanta Center
01:08PM 36.6856 -79.3897 217° Southwest 377 434 34,000  Level Atlanta Center
01:09PM 36.6031 -79.4667 217° Southwest 377 434 34,000  Level Atlanta Center
01:10PM 36.5222 -79.5411 217° Southwest 377 434 34,000  Level Atlanta Center
01:11PM 36.4353 -79.6156 215° Southwest 377 434 34,000  Level Atlanta Center
01:12PM 36.3608 -79.6869 218° Southwest 377 434 34,000  Level Atlanta Center
01:13PM 36.2758 -79.7636 216° Southwest 377 434 34,000  Level Atlanta Center
01:14PM 36.1908 -79.8400 216° Southwest 382 440 34,000  Level Atlanta Center
01:15PM 36.1078 -79.9139 216° Southwest 382 440 34,000  Level Atlanta Center
01:16PM 36.0061 -79.9908 211° Southwest 382 440 34,000  Level Atlanta Center
01:17PM 35.9056 -80.0394 201° Southwest 382 440 34,000  Level Atlanta Center
01:18PM 35.8028 -80.0906 202° Southwest 393 452 34,000  Level Atlanta Center
01:19PM 35.7003 -80.1442 203° Southwest 399 459 34,000  Level Atlanta Center
01:20PM 35.5978 -80.1975 203° Southwest 405 466 34,000  Level Atlanta Center
01:21PM 35.4950 -80.2508 203° Southwest 405 466 34,000  Level Atlanta Center
01:22PM 35.3922 -80.2989 201° Southwest 400 460 34,000  Level Atlanta Center
01:23PM 35.2894 -80.3494 202° Southwest 400 460 34,000 180 Level Atlanta Center
01:24PM 35.1886 -80.3994 202° Southwest 400 460 34,400 600 Climbing Atlanta Center
01:25PM 35.0839 -80.4525 203° Southwest 400 460 35,300 480 Climbing Atlanta Center
01:27PM 34.8931 -80.5464 202° Southwest 389 448 36,000 180 Climbing Jacksonville Center
01:28PM 34.7981 -80.5969 204° Southwest 389 448 36,000  Level Jacksonville Center
01:29PM 34.6967 -80.6428 200° South 377 434 36,000  Level Jacksonville Center
01:30PM 34.5808 -80.7011 203° Southwest 395 455 36,000  Level Jacksonville Center
01:31PM 34.4756 -80.7567 204° Southwest 417 480 36,000  Level Jacksonville Center
01:32PM 34.3719 -80.8072 202° Southwest 410 472 36,000  Level Jacksonville Center
01:33PM 34.2914 -80.8492 203° Southwest 411 473 36,000  Level Jacksonville Center
01:34PM 34.1836 -80.8969 200° South 397 457 36,000  Level Jacksonville Center
01:35PM 34.0822 -80.9469 202° Southwest 397 457 36,000  Level Jacksonville Center
01:36PM 33.9786 -80.9967 202° Southwest 397 457 36,000  Level Jacksonville Center
01:37PM 33.8667 -81.0492 201° Southwest 390 449 36,000  Level Jacksonville Center
01:38PM 33.7611 -81.1014 202° Southwest 395 455 36,000  Level Jacksonville Center
01:39PM 33.6678 -81.1506 204° Southwest 401 461 36,000  Level Jacksonville Center
01:40PM 33.5622 -81.2028 202° Southwest 406 467 36,000  Level Jacksonville Center
01:41PM 33.4564 -81.2544 202° Southwest 411 473 36,000  Level Jacksonville Center
01:42PM 33.3486 -81.3061 202° Southwest 417 480 36,000  Level Jacksonville Center
01:43PM 33.2469 -81.3575 203° Southwest 412 474 36,000  Level Jacksonville Center
01:44PM 33.1389 -81.4092 202° Southwest 412 474 36,000  Level Jacksonville Center
01:45PM 33.0311 -81.4628 203° Southwest 418 481 36,000  Level Jacksonville Center
01:46PM 32.9253 -81.5142 202° Southwest 418 481 36,000  Level Jacksonville Center
01:47PM 32.8192 -81.5678 203° Southwest 418 481 36,000  Level Jacksonville Center
01:48PM 32.7114 -81.6186 202° Southwest 413 475 36,000  Level Jacksonville Center
01:49PM 32.6075 -81.6694 202° Southwest 413 475 36,000  Level Jacksonville Center
01:50PM 32.4889 -81.7275 202° Southwest 413 475 36,000  Level Jacksonville Center
01:51PM 32.3933 -81.7706 201° Southwest 413 475 36,000  Level Jacksonville Center
01:52PM 32.2728 -81.8286 202° Southwest 419 482 36,000  Level Jacksonville Center
01:53PM 32.1667 -81.8814 203° Southwest 419 482 36,000  Level Jacksonville Center
01:54PM 32.0711 -81.9267 202° Southwest 414 476 36,000  Level Jacksonville Center
01:55PM 31.9503 -81.9817 201° Southwest 414 476 36,000  Level Jacksonville Center
01:56PM 31.8483 -82.0194 197° South 414 476 36,000  Level Jacksonville Center
01:57PM 31.7253 -82.0694 199° South 425 489 36,000  Level Jacksonville Center
01:58PM 31.6108 -82.1192 200° South 440 506 36,000  Level Jacksonville Center
01:59PM 31.5089 -82.1614 199° South 440 506 36,000  Level Jacksonville Center
02:00PM 31.3942 -82.2061 198° South 434 499 36,000  Level Jacksonville Center
02:01PM 31.2817 -82.2508 199° South 434 499 36,000  Level Jacksonville Center
02:02PM 31.1672 -82.2953 198° South 434 499 36,000  Level Jacksonville Center
02:03PM 31.0525 -82.3422 199° South 434 499 36,000  Level Jacksonville Center
02:04PM 30.9294 -82.3914 199° South 434 499 36,000  Level Jacksonville Center
02:05PM 30.8147 -82.4353 198° South 434 499 36,000  Level Jacksonville Center
02:06PM 30.7000 -82.4794 198° South 434 499 36,000  Level Jacksonville Center
02:07PM 30.5856 -82.5233 198° South 434 499 36,000  Level Jacksonville Center
02:08PM 30.4664 -82.5456 189° South 434 499 36,000  Level Jacksonville Center
02:09PM 30.3347 -82.5003 163° South 459 528 36,000  Level Jacksonville Center
02:10PM 30.2053 -82.4553 163° South 472 543 36,000 -300 Level Jacksonville Center
02:11PM 30.0797 -82.3908 156° South 477 549 35,500 -720 Descending Jacksonville Center
02:12PM 29.9667 -82.3364 157° South 485 558 34,600 -4,260 Descending Jacksonville Center
02:13PM 29.8206 -82.3108 171° South 485 558 27,000 -3,660 Descending Jacksonville Center
02:14PM 29.6992 -82.2733 165° South 492 566 27,400 -540 Climbing Jacksonville Center
02:15PM 29.5717 -82.2503 171° South 486 559 26,000 -1,200 Descending Jacksonville Center
02:16PM 29.4464 -82.2319 173° South 474 545 25,000 -540 Descending Jacksonville Center
02:17PM 29.3231 -82.2114 172° South 462 532 25,000 -600 Level Jacksonville Center
02:18PM 29.2000 -82.1956 174° South 456 525 23,900 -1,740 Descending Jacksonville Center
02:19PM 29.0808 -82.1775 172° South 450 518 21,500 -2,520 Descending Jacksonville Center
02:20PM 28.9617 -82.1617 173° South 438 504 18,900 -2,640 Descending Jacksonville Center
02:21PM 28.8386 -82.1411 172° South 424 488 16,300 -2,220 Descending Jacksonville Center
02:23PM 28.6500 -82.1167 174° South 407 468 13,100 -1,500 Descending Tampa TRACON
02:24PM 28.5167 -82.0833 168° South 399 459 12,000 -960 Descending Tampa TRACON
02:25PM 28.4167 -82.0833 180° South 366 421 11,100 -540 Descending Tampa TRACON
02:26PM 28.3167 -82.0833 180° South 365 420 11,000 -60 Descending Tampa TRACON
02:27PM 28.2333 -82.1000 190° South 358 412 11,000 -540 Level Tampa TRACON
02:28PM 28.1333 -82.1333 196° South 309 356 10,000 -960 Descending Tampa TRACON
02:29PM 28.0667 -82.1500 192° South 299 344 9,100 -1,020 Descending Tampa TRACON
02:30PM 27.9833 -82.1667 190° South 302 348 8,200 -1,080 Descending Tampa TRACON
02:31PM 27.9167 -82.2000 204° Southwest 290 334 7,100 -1,080 Descending Tampa TRACON
02:32PM 27.8333 -82.2167 190° South 281 323 6,100 -600 Descending Tampa TRACON
02:33PM 27.7667 -82.2333 192° South 277 319 6,000  Descending Tampa TRACON
02:34PM 27.7000 -82.3000 222° Southwest 276 318 6,100  Climbing Tampa TRACON
02:35PM 27.6500 -82.3500 222° Southwest 279 321 6,000 -480 Descending Tampa TRACON
02:36PM 27.5833 -82.3833 204° Southwest 279 321 5,300 -1,200 Descending Tampa TRACON
02:37PM 27.5167 -82.3667 167° South 268 308 3,700 -1,500 Descending Tampa TRACON
02:38PM 27.4500 -82.4000 204° Southwest 266 306 2,300 -1,440 Descending Tampa TRACON